sensor_id;sensor_type;location;lat;lon;timestamp;temperature;humidity
11446;DHT22;5779;64.178;15.432;2024-03-29T00:02:31;2.60;99.90
11446;DHT22;5779;64.178;15.432;2024-03-29T00:05:16;2.60;99.90
11446;DHT22;5779;64.178;15.432;2024-03-29T00:08:02;2.60;99.90
11446;DHT22;5779;64.178;15.432;2024-03-29T00:10:48;2.50;99.90
11446;DHT22;5779;64.178;15.432;2024-03-29T00:13:33;2.60;99.90
11446;DHT22;5779;64.178;15.432;2024-03-29T00:16:19;2.60;99.90
11446;DHT22;5779;64.178;15.432;2024-03-29T00:19:06;2.50;99.90
11446;DHT22;5779;64.178;15.432;2024-03-29T00:21:51;2.40;99.90
11446;DHT22;5779;64.178;15.432;2024-03-29T00:24:37;2.40;99.90
11446;DHT22;5779;64.178;15.432;2024-03-29T00:27:22;2.40;99.90
11446;DHT22;5779;64.178;15.432;2024-03-29T00:30:09;2.30;99.90
11446;DHT22;5779;64.178;15.432;2024-03-29T00:32:55;2.30;99.90
11446;DHT22;5779;64.178;15.432;2024-03-29T00:35:42;2.20;99.90
11446;DHT22;5779;64.178;15.432;2024-03-29T00:38:27;2.10;99.90
11446;DHT22;5779;64.178;15.432;2024-03-29T00:41:13;2.00;99.90
11446;DHT22;5779;64.178;15.432;2024-03-29T00:43:58;1.90;99.90
11446;DHT22;5779;64.178;15.432;2024-03-29T00:46:44;1.90;99.90
11446;DHT22;5779;64.178;15.432;2024-03-29T00:49:29;1.90;99.90
11446;DHT22;5779;64.178;15.432;2024-03-29T00:52:16;1.90;99.90
11446;DHT22;5779;64.178;15.432;2024-03-29T00:55:02;1.90;99.90
11446;DHT22;5779;64.178;15.432;2024-03-29T00:57:48;1.90;99.90
11446;DHT22;5779;64.178;15.432;2024-03-29T01:00:33;1.90;99.90
11446;DHT22;5779;64.178;15.432;2024-03-29T01:03:19;1.90;99.90
11446;DHT22;5779;64.178;15.432;2024-03-29T01:06:04;1.80;99.90
11446;DHT22;5779;64.178;15.432;2024-03-29T01:08:51;1.70;99.90
11446;DHT22;5779;64.178;15.432;2024-03-29T01:11:37;1.70;99.90
11446;DHT22;5779;64.178;15.432;2024-03-29T01:14:23;1.70;99.90
11446;DHT22;5779;64.178;15.432;2024-03-29T01:17:08;1.60;99.90
11446;DHT22;5779;64.178;15.432;2024-03-29T01:19:54;1.60;99.90
11446;DHT22;5779;64.178;15.432;2024-03-29T01:22:40;1.60;99.90
11446;DHT22;5779;64.178;15.432;2024-03-29T01:25:26;1.60;99.90
11446;DHT22;5779;64.178;15.432;2024-03-29T01:28:12;1.50;99.90
11446;DHT22;5779;64.178;15.432;2024-03-29T01:30:58;1.50;99.90
11446;DHT22;5779;64.178;15.432;2024-03-29T01:33:44;1.50;99.90
11446;DHT22;5779;64.178;15.432;2024-03-29T01:36:29;1.50;99.90
11446;DHT22;5779;64.178;15.432;2024-03-29T01:39:15;1.50;99.90
11446;DHT22;5779;64.178;15.432;2024-03-29T01:42:02;1.50;99.90
11446;DHT22;5779;64.178;15.432;2024-03-29T01:44:49;1.50;99.90
11446;DHT22;5779;64.178;15.432;2024-03-29T01:47:36;1.50;99.90
11446;DHT22;5779;64.178;15.432;2024-03-29T01:50:23;1.50;99.90
11446;DHT22;5779;64.178;15.432;2024-03-29T01:53:10;1.40;99.90
11446;DHT22;5779;64.178;15.432;2024-03-29T01:56:00;1.40;99.90
11446;DHT22;5779;64.178;15.432;2024-03-29T01:58:50;1.30;99.90
11446;DHT22;5779;64.178;15.432;2024-03-29T02:01:39;1.30;99.90
11446;DHT22;5779;64.178;15.432;2024-03-29T02:04:28;1.30;99.90
11446;DHT22;5779;64.178;15.432;2024-03-29T02:07:15;1.30;99.90
11446;DHT22;5779;64.178;15.432;2024-03-29T02:10:02;1.30;99.90
11446;DHT22;5779;64.178;15.432;2024-03-29T02:12:48;1.20;99.90
11446;DHT22;5779;64.178;15.432;2024-03-29T02:15:38;1.30;99.90
11446;DHT22;5779;64.178;15.432;2024-03-29T02:18:25;1.20;99.90
11446;DHT22;5779;64.178;15.432;2024-03-29T02:21:12;1.20;99.90
11446;DHT22;5779;64.178;15.432;2024-03-29T02:24:05;1.20;99.90
11446;DHT22;5779;64.178;15.432;2024-03-29T02:26:53;1.20;99.90
11446;DHT22;5779;64.178;15.432;2024-03-29T02:29:40;1.20;99.90
11446;DHT22;5779;64.178;15.432;2024-03-29T02:32:27;1.10;99.90
11446;DHT22;5779;64.178;15.432;2024-03-29T02:35:14;1.10;99.90
11446;DHT22;5779;64.178;15.432;2024-03-29T02:38:01;1.10;99.90
11446;DHT22;5779;64.178;15.432;2024-03-29T02:40:49;1.10;99.90
11446;DHT22;5779;64.178;15.432;2024-03-29T02:43:36;1.00;99.90
11446;DHT22;5779;64.178;15.432;2024-03-29T02:46:24;1.10;99.90
11446;DHT22;5779;64.178;15.432;2024-03-29T02:49:11;1.00;99.90
11446;DHT22;5779;64.178;15.432;2024-03-29T02:51:56;0.90;99.90
11446;DHT22;5779;64.178;15.432;2024-03-29T02:54:44;0.90;99.90
11446;DHT22;5779;64.178;15.432;2024-03-29T02:57:32;0.90;99.90
11446;DHT22;5779;64.178;15.432;2024-03-29T03:00:18;0.80;99.90
11446;DHT22;5779;64.178;15.432;2024-03-29T03:03:05;0.80;99.90
11446;DHT22;5779;64.178;15.432;2024-03-29T03:05:51;0.80;99.90
11446;DHT22;5779;64.178;15.432;2024-03-29T03:08:40;0.80;99.90
11446;DHT22;5779;64.178;15.432;2024-03-29T03:11:44;0.70;99.90
11446;DHT22;5779;64.178;15.432;2024-03-29T03:14:32;0.70;99.90
11446;DHT22;5779;64.178;15.432;2024-03-29T03:17:19;0.80;99.90
11446;DHT22;5779;64.178;15.432;2024-03-29T03:20:07;0.70;99.90
11446;DHT22;5779;64.178;15.432;2024-03-29T03:22:54;0.70;99.90
11446;DHT22;5779;64.178;15.432;2024-03-29T03:25:42;0.60;99.90
11446;DHT22;5779;64.178;15.432;2024-03-29T03:28:28;0.60;99.90
11446;DHT22;5779;64.178;15.432;2024-03-29T03:31:16;0.60;99.90
11446;DHT22;5779;64.178;15.432;2024-03-29T03:34:02;0.60;99.90
11446;DHT22;5779;64.178;15.432;2024-03-29T03:36:49;0.60;99.90
11446;DHT22;5779;64.178;15.432;2024-03-29T03:39:34;0.60;99.90
11446;DHT22;5779;64.178;15.432;2024-03-29T03:42:21;0.50;99.90
11446;DHT22;5779;64.178;15.432;2024-03-29T03:45:07;0.40;99.90
11446;DHT22;5779;64.178;15.432;2024-03-29T03:47:56;0.50;99.90
11446;DHT22;5779;64.178;15.432;2024-03-29T03:50:41;0.60;99.90
11446;DHT22;5779;64.178;15.432;2024-03-29T03:53:28;0.50;99.90
11446;DHT22;5779;64.178;15.432;2024-03-29T03:56:13;0.40;99.90
11446;DHT22;5779;64.178;15.432;2024-03-29T03:59:01;0.40;99.90
11446;DHT22;5779;64.178;15.432;2024-03-29T04:01:48;0.40;99.90
11446;DHT22;5779;64.178;15.432;2024-03-29T04:04:38;0.30;99.90
11446;DHT22;5779;64.178;15.432;2024-03-29T04:07:24;0.30;99.90
11446;DHT22;5779;64.178;15.432;2024-03-29T04:10:12;0.30;99.90
11446;DHT22;5779;64.178;15.432;2024-03-29T04:12:57;0.10;99.90
11446;DHT22;5779;64.178;15.432;2024-03-29T04:15:44;0.00;99.90
11446;DHT22;5779;64.178;15.432;2024-03-29T04:18:30;0.00;99.90
11446;DHT22;5779;64.178;15.432;2024-03-29T04:21:19;0.00;99.90
11446;DHT22;5779;64.178;15.432;2024-03-29T04:24:05;0.00;99.90
11446;DHT22;5779;64.178;15.432;2024-03-29T04:26:53;0.00;99.90
11446;DHT22;5779;64.178;15.432;2024-03-29T04:29:39;0.00;99.90
11446;DHT22;5779;64.178;15.432;2024-03-29T04:32:26;-0.10;99.90
11446;DHT22;5779;64.178;15.432;2024-03-29T04:35:11;-0.10;99.90
11446;DHT22;5779;64.178;15.432;2024-03-29T04:38:00;0.00;99.90
11446;DHT22;5779;64.178;15.432;2024-03-29T04:40:47;-0.10;99.90
11446;DHT22;5779;64.178;15.432;2024-03-29T04:43:34;0.00;99.90
11446;DHT22;5779;64.178;15.432;2024-03-29T04:46:22;-0.10;99.90
11446;DHT22;5779;64.178;15.432;2024-03-29T04:49:11;-0.20;99.90
11446;DHT22;5779;64.178;15.432;2024-03-29T04:51:58;-0.20;99.90
11446;DHT22;5779;64.178;15.432;2024-03-29T04:54:46;-0.20;99.90
11446;DHT22;5779;64.178;15.432;2024-03-29T04:57:34;-0.30;99.90
11446;DHT22;5779;64.178;15.432;2024-03-29T05:00:23;-0.30;99.90
11446;DHT22;5779;64.178;15.432;2024-03-29T05:03:14;-0.30;99.90
11446;DHT22;5779;64.178;15.432;2024-03-29T05:06:05;-0.40;99.90
11446;DHT22;5779;64.178;15.432;2024-03-29T05:08:54;-0.40;99.90
11446;DHT22;5779;64.178;15.432;2024-03-29T05:11:42;-0.40;99.90
11446;DHT22;5779;64.178;15.432;2024-03-29T05:14:29;-0.40;99.90
11446;DHT22;5779;64.178;15.432;2024-03-29T05:17:16;-0.40;99.90
11446;DHT22;5779;64.178;15.432;2024-03-29T05:20:08;-0.50;99.90
11446;DHT22;5779;64.178;15.432;2024-03-29T05:22:55;-0.60;99.90
11446;DHT22;5779;64.178;15.432;2024-03-29T05:25:42;-0.70;99.90
11446;DHT22;5779;64.178;15.432;2024-03-29T05:28:30;-0.70;99.90
11446;DHT22;5779;64.178;15.432;2024-03-29T05:31:17;-0.70;99.90
11446;DHT22;5779;64.178;15.432;2024-03-29T05:34:06;-0.60;99.90
11446;DHT22;5779;64.178;15.432;2024-03-29T05:36:53;-0.60;99.90
11446;DHT22;5779;64.178;15.432;2024-03-29T05:39:40;-0.50;99.90
11446;DHT22;5779;64.178;15.432;2024-03-29T05:42:27;-0.40;99.90
11446;DHT22;5779;64.178;15.432;2024-03-29T05:45:25;-0.40;99.90
11446;DHT22;5779;64.178;15.432;2024-03-29T05:48:12;-0.40;99.90
11446;DHT22;5779;64.178;15.432;2024-03-29T05:50:59;-0.40;99.90
11446;DHT22;5779;64.178;15.432;2024-03-29T05:53:46;-0.30;99.90
11446;DHT22;5779;64.178;15.432;2024-03-29T05:56:33;-0.40;99.90
11446;DHT22;5779;64.178;15.432;2024-03-29T05:59:20;-0.30;99.90
11446;DHT22;5779;64.178;15.432;2024-03-29T06:02:08;-0.10;99.90
11446;DHT22;5779;64.178;15.432;2024-03-29T06:04:55;-0.30;99.90
11446;DHT22;5779;64.178;15.432;2024-03-29T06:07:43;-0.40;99.90
11446;DHT22;5779;64.178;15.432;2024-03-29T06:10:29;-0.50;99.90
11446;DHT22;5779;64.178;15.432;2024-03-29T06:13:16;-0.60;99.90
11446;DHT22;5779;64.178;15.432;2024-03-29T06:16:15;-0.60;99.90
11446;DHT22;5779;64.178;15.432;2024-03-29T06:19:22;-0.60;99.90
11446;DHT22;5779;64.178;15.432;2024-03-29T06:22:10;-0.50;99.90
11446;DHT22;5779;64.178;15.432;2024-03-29T06:24:57;-0.40;99.90
11446;DHT22;5779;64.178;15.432;2024-03-29T06:27:49;-0.40;99.90
11446;DHT22;5779;64.178;15.432;2024-03-29T06:30:36;-0.40;99.90
11446;DHT22;5779;64.178;15.432;2024-03-29T06:33:23;-0.40;99.90
11446;DHT22;5779;64.178;15.432;2024-03-29T06:36:12;-0.50;99.90
11446;DHT22;5779;64.178;15.432;2024-03-29T06:38:58;-0.40;99.90
11446;DHT22;5779;64.178;15.432;2024-03-29T06:41:45;-0.50;99.90
11446;DHT22;5779;64.178;15.432;2024-03-29T06:44:32;-0.50;99.90
11446;DHT22;5779;64.178;15.432;2024-03-29T06:47:19;-0.50;99.90
11446;DHT22;5779;64.178;15.432;2024-03-29T06:50:07;-0.50;99.90
11446;DHT22;5779;64.178;15.432;2024-03-29T06:52:55;-0.50;99.90
11446;DHT22;5779;64.178;15.432;2024-03-29T06:55:42;-0.50;99.90
11446;DHT22;5779;64.178;15.432;2024-03-29T06:58:29;-0.60;99.90
11446;DHT22;5779;64.178;15.432;2024-03-29T07:01:16;-0.60;99.90
11446;DHT22;5779;64.178;15.432;2024-03-29T07:04:03;-0.60;99.90
11446;DHT22;5779;64.178;15.432;2024-03-29T07:06:50;-0.70;99.90
11446;DHT22;5779;64.178;15.432;2024-03-29T07:09:38;-0.70;99.90
11446;DHT22;5779;64.178;15.432;2024-03-29T07:12:26;-0.70;99.90
11446;DHT22;5779;64.178;15.432;2024-03-29T07:15:13;-0.70;99.90
11446;DHT22;5779;64.178;15.432;2024-03-29T07:18:01;-0.70;99.90
11446;DHT22;5779;64.178;15.432;2024-03-29T07:20:48;-0.70;99.90
11446;DHT22;5779;64.178;15.432;2024-03-29T07:23:36;-0.70;99.90
11446;DHT22;5779;64.178;15.432;2024-03-29T07:26:24;-0.70;99.90
11446;DHT22;5779;64.178;15.432;2024-03-29T07:29:10;-0.70;99.90
11446;DHT22;5779;64.178;15.432;2024-03-29T07:31:58;-0.80;99.90
11446;DHT22;5779;64.178;15.432;2024-03-29T07:34:46;-0.70;99.90
11446;DHT22;5779;64.178;15.432;2024-03-29T07:37:33;-0.70;99.90
11446;DHT22;5779;64.178;15.432;2024-03-29T07:40:20;-0.70;99.90
11446;DHT22;5779;64.178;15.432;2024-03-29T07:43:08;-0.60;99.90
11446;DHT22;5779;64.178;15.432;2024-03-29T07:45:55;-0.50;99.90
11446;DHT22;5779;64.178;15.432;2024-03-29T07:48:42;-0.50;99.90
11446;DHT22;5779;64.178;15.432;2024-03-29T07:51:29;-0.60;99.90
11446;DHT22;5779;64.178;15.432;2024-03-29T07:54:17;-0.70;99.90
11446;DHT22;5779;64.178;15.432;2024-03-29T07:57:04;-0.60;99.90
11446;DHT22;5779;64.178;15.432;2024-03-29T07:59:54;-0.70;99.90
11446;DHT22;5779;64.178;15.432;2024-03-29T08:02:41;-0.60;99.90
11446;DHT22;5779;64.178;15.432;2024-03-29T08:05:28;-0.80;99.90
11446;DHT22;5779;64.178;15.432;2024-03-29T08:08:15;-0.70;99.90
11446;DHT22;5779;64.178;15.432;2024-03-29T08:11:02;-0.60;99.90
11446;DHT22;5779;64.178;15.432;2024-03-29T08:13:49;-0.60;99.90
11446;DHT22;5779;64.178;15.432;2024-03-29T08:16:37;-0.50;99.90
11446;DHT22;5779;64.178;15.432;2024-03-29T08:19:24;-0.50;99.90
11446;DHT22;5779;64.178;15.432;2024-03-29T08:22:11;-0.50;99.90
11446;DHT22;5779;64.178;15.432;2024-03-29T08:24:58;-0.40;99.90
11446;DHT22;5779;64.178;15.432;2024-03-29T08:27:45;-0.60;99.90
11446;DHT22;5779;64.178;15.432;2024-03-29T08:30:32;-0.70;99.90
11446;DHT22;5779;64.178;15.432;2024-03-29T08:33:24;-0.60;99.90
11446;DHT22;5779;64.178;15.432;2024-03-29T08:36:11;-0.50;99.90
11446;DHT22;5779;64.178;15.432;2024-03-29T08:38:58;-0.60;99.90
11446;DHT22;5779;64.178;15.432;2024-03-29T08:41:45;-0.60;99.90
11446;DHT22;5779;64.178;15.432;2024-03-29T08:44:33;-0.60;99.90
11446;DHT22;5779;64.178;15.432;2024-03-29T08:47:21;-0.50;99.90
11446;DHT22;5779;64.178;15.432;2024-03-29T08:50:10;-0.40;99.90
11446;DHT22;5779;64.178;15.432;2024-03-29T08:53:00;-0.50;99.90
11446;DHT22;5779;64.178;15.432;2024-03-29T08:55:47;-0.30;99.90
11446;DHT22;5779;64.178;15.432;2024-03-29T08:58:35;-0.20;99.90
11446;DHT22;5779;64.178;15.432;2024-03-29T09:01:21;-0.20;99.90
11446;DHT22;5779;64.178;15.432;2024-03-29T09:04:09;-0.20;99.90
11446;DHT22;5779;64.178;15.432;2024-03-29T09:06:58;-0.30;99.90
11446;DHT22;5779;64.178;15.432;2024-03-29T09:09:45;-0.50;99.90
11446;DHT22;5779;64.178;15.432;2024-03-29T09:12:32;-0.50;99.90
11446;DHT22;5779;64.178;15.432;2024-03-29T09:15:20;-0.50;99.90
11446;DHT22;5779;64.178;15.432;2024-03-29T09:18:07;-0.40;99.90
11446;DHT22;5779;64.178;15.432;2024-03-29T09:21:02;-0.40;99.90
11446;DHT22;5779;64.178;15.432;2024-03-29T09:23:52;-0.40;99.90
11446;DHT22;5779;64.178;15.432;2024-03-29T09:26:39;-0.30;99.90
11446;DHT22;5779;64.178;15.432;2024-03-29T09:29:26;-0.20;99.90
11446;DHT22;5779;64.178;15.432;2024-03-29T09:32:13;-0.20;99.90
11446;DHT22;5779;64.178;15.432;2024-03-29T09:35:03;-0.20;99.90
11446;DHT22;5779;64.178;15.432;2024-03-29T09:37:50;-0.30;99.90
11446;DHT22;5779;64.178;15.432;2024-03-29T09:40:39;-0.40;99.90
11446;DHT22;5779;64.178;15.432;2024-03-29T09:43:26;-0.30;99.90
11446;DHT22;5779;64.178;15.432;2024-03-29T09:46:15;-0.10;99.90
11446;DHT22;5779;64.178;15.432;2024-03-29T09:49:03;-0.10;99.90
11446;DHT22;5779;64.178;15.432;2024-03-29T09:51:52;-0.10;99.90
11446;DHT22;5779;64.178;15.432;2024-03-29T09:54:40;-0.10;99.90
11446;DHT22;5779;64.178;15.432;2024-03-29T09:57:29;0.00;99.90
11446;DHT22;5779;64.178;15.432;2024-03-29T10:00:17;-0.10;99.90
11446;DHT22;5779;64.178;15.432;2024-03-29T10:03:09;-0.40;99.90
11446;DHT22;5779;64.178;15.432;2024-03-29T10:05:57;-0.30;99.90
11446;DHT22;5779;64.178;15.432;2024-03-29T10:08:44;-0.20;99.90
11446;DHT22;5779;64.178;15.432;2024-03-29T10:11:32;-0.30;99.90
11446;DHT22;5779;64.178;15.432;2024-03-29T10:14:21;-0.20;99.90
11446;DHT22;5779;64.178;15.432;2024-03-29T10:17:09;-0.20;99.90
11446;DHT22;5779;64.178;15.432;2024-03-29T10:20:00;-0.10;99.90
11446;DHT22;5779;64.178;15.432;2024-03-29T10:22:48;0.00;99.90
11446;DHT22;5779;64.178;15.432;2024-03-29T10:25:35;-0.10;99.90
11446;DHT22;5779;64.178;15.432;2024-03-29T10:28:21;-0.20;99.90
11446;DHT22;5779;64.178;15.432;2024-03-29T10:31:11;-0.30;99.90
11446;DHT22;5779;64.178;15.432;2024-03-29T10:34:02;-0.40;99.90
11446;DHT22;5779;64.178;15.432;2024-03-29T10:36:50;-0.50;99.90
11446;DHT22;5779;64.178;15.432;2024-03-29T10:39:36;-0.50;99.90
11446;DHT22;5779;64.178;15.432;2024-03-29T10:42:29;-0.60;99.90
11446;DHT22;5779;64.178;15.432;2024-03-29T10:45:18;-0.60;99.90
11446;DHT22;5779;64.178;15.432;2024-03-29T10:48:10;-0.50;99.90
11446;DHT22;5779;64.178;15.432;2024-03-29T10:50:56;-0.40;99.90
11446;DHT22;5779;64.178;15.432;2024-03-29T10:53:45;-0.30;99.90
11446;DHT22;5779;64.178;15.432;2024-03-29T10:56:35;-0.40;99.90
11446;DHT22;5779;64.178;15.432;2024-03-29T10:59:29;-0.50;99.90
11446;DHT22;5779;64.178;15.432;2024-03-29T11:02:28;-0.40;99.90
11446;DHT22;5779;64.178;15.432;2024-03-29T11:05:18;-0.40;99.90
11446;DHT22;5779;64.178;15.432;2024-03-29T11:08:10;-0.50;99.90
11446;DHT22;5779;64.178;15.432;2024-03-29T11:11:02;-0.40;99.90
11446;DHT22;5779;64.178;15.432;2024-03-29T11:13:55;-0.50;99.90
11446;DHT22;5779;64.178;15.432;2024-03-29T11:16:45;-0.60;99.90
11446;DHT22;5779;64.178;15.432;2024-03-29T11:19:33;-0.80;99.90
11446;DHT22;5779;64.178;15.432;2024-03-29T11:22:23;-0.70;99.90
11446;DHT22;5779;64.178;15.432;2024-03-29T11:25:11;-0.70;99.90
11446;DHT22;5779;64.178;15.432;2024-03-29T11:28:04;-0.70;99.90
11446;DHT22;5779;64.178;15.432;2024-03-29T11:30:53;-0.50;99.90
11446;DHT22;5779;64.178;15.432;2024-03-29T11:33:45;-0.50;99.90
11446;DHT22;5779;64.178;15.432;2024-03-29T11:36:34;-0.50;99.90
11446;DHT22;5779;64.178;15.432;2024-03-29T11:39:23;-0.40;99.90
11446;DHT22;5779;64.178;15.432;2024-03-29T11:42:10;-0.30;99.90
11446;DHT22;5779;64.178;15.432;2024-03-29T11:44:57;-0.50;99.90
11446;DHT22;5779;64.178;15.432;2024-03-29T11:47:45;-0.40;99.90
11446;DHT22;5779;64.178;15.432;2024-03-29T11:50:33;-0.30;99.90
11446;DHT22;5779;64.178;15.432;2024-03-29T11:53:21;-0.30;99.90
11446;DHT22;5779;64.178;15.432;2024-03-29T11:56:10;-0.10;99.90
11446;DHT22;5779;64.178;15.432;2024-03-29T11:58:58;0.10;99.90
11446;DHT22;5779;64.178;15.432;2024-03-29T12:01:46;0.00;99.90
11446;DHT22;5779;64.178;15.432;2024-03-29T12:04:33;0.00;99.90
11446;DHT22;5779;64.178;15.432;2024-03-29T12:07:24;-0.20;99.90
11446;DHT22;5779;64.178;15.432;2024-03-29T12:10:12;-0.20;99.90
11446;DHT22;5779;64.178;15.432;2024-03-29T12:13:01;-0.20;99.90
11446;DHT22;5779;64.178;15.432;2024-03-29T12:15:47;-0.50;99.90
11446;DHT22;5779;64.178;15.432;2024-03-29T12:18:34;-0.40;99.90
11446;DHT22;5779;64.178;15.432;2024-03-29T12:21:21;-0.20;99.90
11446;DHT22;5779;64.178;15.432;2024-03-29T12:24:11;0.00;99.90
11446;DHT22;5779;64.178;15.432;2024-03-29T12:26:59;-0.10;99.90
11446;DHT22;5779;64.178;15.432;2024-03-29T12:29:47;-0.30;99.90
11446;DHT22;5779;64.178;15.432;2024-03-29T12:32:34;-0.50;99.90
11446;DHT22;5779;64.178;15.432;2024-03-29T12:35:21;-0.30;99.90
11446;DHT22;5779;64.178;15.432;2024-03-29T12:38:10;-0.60;99.90
11446;DHT22;5779;64.178;15.432;2024-03-29T12:40:57;-0.50;99.90
11446;DHT22;5779;64.178;15.432;2024-03-29T12:43:45;-0.30;99.90
11446;DHT22;5779;64.178;15.432;2024-03-29T12:46:33;-0.50;99.90
11446;DHT22;5779;64.178;15.432;2024-03-29T12:49:22;-0.60;99.90
11446;DHT22;5779;64.178;15.432;2024-03-29T12:52:11;-0.40;99.90
11446;DHT22;5779;64.178;15.432;2024-03-29T12:54:58;-0.30;99.90
11446;DHT22;5779;64.178;15.432;2024-03-29T12:57:45;-0.60;99.90
11446;DHT22;5779;64.178;15.432;2024-03-29T13:00:32;-0.60;99.90
11446;DHT22;5779;64.178;15.432;2024-03-29T13:03:21;-0.60;99.90
11446;DHT22;5779;64.178;15.432;2024-03-29T13:06:07;-0.50;99.90
11446;DHT22;5779;64.178;15.432;2024-03-29T13:08:54;-0.50;99.90
11446;DHT22;5779;64.178;15.432;2024-03-29T13:11:41;-0.40;99.90
11446;DHT22;5779;64.178;15.432;2024-03-29T13:14:28;-0.30;99.90
11446;DHT22;5779;64.178;15.432;2024-03-29T13:17:15;-0.30;99.90
11446;DHT22;5779;64.178;15.432;2024-03-29T13:20:05;-0.50;99.90
11446;DHT22;5779;64.178;15.432;2024-03-29T13:22:52;-0.60;99.90
11446;DHT22;5779;64.178;15.432;2024-03-29T13:25:40;-0.60;99.90
11446;DHT22;5779;64.178;15.432;2024-03-29T13:28:27;-0.70;99.90
11446;DHT22;5779;64.178;15.432;2024-03-29T13:31:14;-0.70;99.90
11446;DHT22;5779;64.178;15.432;2024-03-29T13:34:01;-0.70;99.90
11446;DHT22;5779;64.178;15.432;2024-03-29T13:36:58;-0.60;99.90
11446;DHT22;5779;64.178;15.432;2024-03-29T13:39:45;-0.60;99.90
11446;DHT22;5779;64.178;15.432;2024-03-29T13:42:33;-0.70;99.90
11446;DHT22;5779;64.178;15.432;2024-03-29T13:45:21;-0.60;99.90
11446;DHT22;5779;64.178;15.432;2024-03-29T13:48:11;-0.60;99.90
11446;DHT22;5779;64.178;15.432;2024-03-29T13:50:59;-0.70;99.90
11446;DHT22;5779;64.178;15.432;2024-03-29T13:53:48;-0.90;99.90
11446;DHT22;5779;64.178;15.432;2024-03-29T13:56:35;-0.90;99.90
11446;DHT22;5779;64.178;15.432;2024-03-29T13:59:22;-0.70;99.90
11446;DHT22;5779;64.178;15.432;2024-03-29T14:02:10;-0.60;99.90
11446;DHT22;5779;64.178;15.432;2024-03-29T14:04:57;-0.60;99.90
11446;DHT22;5779;64.178;15.432;2024-03-29T14:07:45;-0.70;99.90
11446;DHT22;5779;64.178;15.432;2024-03-29T14:10:36;-0.50;99.90
11446;DHT22;5779;64.178;15.432;2024-03-29T14:13:24;-0.50;99.90
11446;DHT22;5779;64.178;15.432;2024-03-29T14:16:10;-0.60;99.90
11446;DHT22;5779;64.178;15.432;2024-03-29T14:18:57;-0.50;99.90
11446;DHT22;5779;64.178;15.432;2024-03-29T14:21:44;-0.50;99.90
11446;DHT22;5779;64.178;15.432;2024-03-29T14:24:31;-0.70;99.90
11446;DHT22;5779;64.178;15.432;2024-03-29T14:27:22;-0.70;99.90
11446;DHT22;5779;64.178;15.432;2024-03-29T14:30:11;-0.70;99.90
11446;DHT22;5779;64.178;15.432;2024-03-29T14:32:58;-0.80;99.90
11446;DHT22;5779;64.178;15.432;2024-03-29T14:35:51;-0.60;99.90
11446;DHT22;5779;64.178;15.432;2024-03-29T14:38:38;-0.60;99.90
11446;DHT22;5779;64.178;15.432;2024-03-29T14:41:25;-0.50;99.90
11446;DHT22;5779;64.178;15.432;2024-03-29T14:44:14;-0.50;99.90
11446;DHT22;5779;64.178;15.432;2024-03-29T14:47:00;-0.50;99.90
11446;DHT22;5779;64.178;15.432;2024-03-29T14:49:47;-0.60;99.90
11446;DHT22;5779;64.178;15.432;2024-03-29T14:52:34;-0.70;99.90
11446;DHT22;5779;64.178;15.432;2024-03-29T14:55:21;-0.50;99.90
11446;DHT22;5779;64.178;15.432;2024-03-29T14:58:08;-0.60;99.90
11446;DHT22;5779;64.178;15.432;2024-03-29T15:00:57;-0.60;99.90
11446;DHT22;5779;64.178;15.432;2024-03-29T15:03:45;-0.60;99.90
11446;DHT22;5779;64.178;15.432;2024-03-29T15:06:32;-0.70;99.90
11446;DHT22;5779;64.178;15.432;2024-03-29T15:09:18;-0.60;99.90
11446;DHT22;5779;64.178;15.432;2024-03-29T15:12:06;-0.60;99.90
11446;DHT22;5779;64.178;15.432;2024-03-29T15:14:53;-0.50;99.90
11446;DHT22;5779;64.178;15.432;2024-03-29T15:17:42;-0.40;99.90
11446;DHT22;5779;64.178;15.432;2024-03-29T15:20:29;-0.50;99.90
11446;DHT22;5779;64.178;15.432;2024-03-29T15:23:16;-0.40;99.90
11446;DHT22;5779;64.178;15.432;2024-03-29T15:26:07;-0.40;99.90
11446;DHT22;5779;64.178;15.432;2024-03-29T15:28:54;-0.30;99.90
11446;DHT22;5779;64.178;15.432;2024-03-29T15:31:54;-0.20;99.90
11446;DHT22;5779;64.178;15.432;2024-03-29T15:34:43;-0.10;99.90
11446;DHT22;5779;64.178;15.432;2024-03-29T15:37:29;-0.10;99.90
11446;DHT22;5779;64.178;15.432;2024-03-29T15:40:16;-0.10;99.90
11446;DHT22;5779;64.178;15.432;2024-03-29T15:43:03;-0.10;99.90
11446;DHT22;5779;64.178;15.432;2024-03-29T15:45:51;-0.10;99.90
11446;DHT22;5779;64.178;15.432;2024-03-29T15:48:38;-0.30;99.90
11446;DHT22;5779;64.178;15.432;2024-03-29T15:51:27;-0.30;99.90
11446;DHT22;5779;64.178;15.432;2024-03-29T15:54:17;-0.20;99.90
11446;DHT22;5779;64.178;15.432;2024-03-29T15:57:05;-0.30;99.90
11446;DHT22;5779;64.178;15.432;2024-03-29T15:59:52;-0.40;99.90
11446;DHT22;5779;64.178;15.432;2024-03-29T16:02:46;-0.30;99.90
11446;DHT22;5779;64.178;15.432;2024-03-29T16:05:34;-0.40;99.90
11446;DHT22;5779;64.178;15.432;2024-03-29T16:08:23;-0.50;99.90
11446;DHT22;5779;64.178;15.432;2024-03-29T16:11:11;-0.40;99.90
11446;DHT22;5779;64.178;15.432;2024-03-29T16:13:58;-0.40;99.90
11446;DHT22;5779;64.178;15.432;2024-03-29T16:16:46;-0.50;99.90
11446;DHT22;5779;64.178;15.432;2024-03-29T16:19:33;-0.40;99.90
11446;DHT22;5779;64.178;15.432;2024-03-29T16:22:20;-0.30;99.90
11446;DHT22;5779;64.178;15.432;2024-03-29T16:25:08;-0.50;99.90
11446;DHT22;5779;64.178;15.432;2024-03-29T16:27:54;-0.50;99.90
11446;DHT22;5779;64.178;15.432;2024-03-29T16:30:41;-0.60;99.90
11446;DHT22;5779;64.178;15.432;2024-03-29T16:33:27;-0.60;99.90
11446;DHT22;5779;64.178;15.432;2024-03-29T16:36:14;-0.60;99.90
11446;DHT22;5779;64.178;15.432;2024-03-29T16:39:00;-0.50;99.90
11446;DHT22;5779;64.178;15.432;2024-03-29T16:41:49;-0.40;99.90
11446;DHT22;5779;64.178;15.432;2024-03-29T16:44:35;-0.40;99.90
11446;DHT22;5779;64.178;15.432;2024-03-29T16:47:22;-0.30;99.90
11446;DHT22;5779;64.178;15.432;2024-03-29T16:50:08;-0.40;99.90
11446;DHT22;5779;64.178;15.432;2024-03-29T16:52:55;-0.40;99.90
11446;DHT22;5779;64.178;15.432;2024-03-29T16:55:42;-0.40;99.90
11446;DHT22;5779;64.178;15.432;2024-03-29T16:58:30;-0.60;99.90
11446;DHT22;5779;64.178;15.432;2024-03-29T17:01:17;-0.60;99.90
11446;DHT22;5779;64.178;15.432;2024-03-29T17:04:04;-0.50;99.90
11446;DHT22;5779;64.178;15.432;2024-03-29T17:06:53;-0.50;99.90
11446;DHT22;5779;64.178;15.432;2024-03-29T17:09:40;-0.50;99.90
11446;DHT22;5779;64.178;15.432;2024-03-29T17:12:27;-0.50;99.90
11446;DHT22;5779;64.178;15.432;2024-03-29T17:15:14;-0.60;99.90
11446;DHT22;5779;64.178;15.432;2024-03-29T17:18:02;-0.60;99.90
11446;DHT22;5779;64.178;15.432;2024-03-29T17:20:49;-0.60;99.90
11446;DHT22;5779;64.178;15.432;2024-03-29T17:23:37;-0.60;99.90
11446;DHT22;5779;64.178;15.432;2024-03-29T17:26:23;-0.50;99.90
11446;DHT22;5779;64.178;15.432;2024-03-29T17:29:09;-0.50;99.90
11446;DHT22;5779;64.178;15.432;2024-03-29T17:31:57;-0.70;99.90
11446;DHT22;5779;64.178;15.432;2024-03-29T17:34:44;-0.80;99.90
11446;DHT22;5779;64.178;15.432;2024-03-29T17:37:30;-0.80;99.90
11446;DHT22;5779;64.178;15.432;2024-03-29T17:40:17;-1.00;99.90
11446;DHT22;5779;64.178;15.432;2024-03-29T17:43:03;-1.00;99.90
11446;DHT22;5779;64.178;15.432;2024-03-29T17:45:51;-1.00;99.90